Time;durP1;ratioP1;P1;durP2;ratioP2;P2;SDS_P1;SDS_P2;PMS_P1;PMS_P2;Temp;Humidity;BMP_temperature;BMP_pressure;BME280_temperature;BME280_humidity;BME280_pressure;Samples;Min_cycle;Max_cycle;Signal;HPM_P1;HPM_P2
2021/07/12 00:00:36;;;;;;;6.30;4.63;;;;;;;;;;5012111;28;20037;-67
2021/07/12 00:03:05;;;;;;;5.93;4.80;;;;;;;;;;5012068;28;20030;-67
2021/07/12 00:05:31;;;;;;;6.97;4.82;;;;;;;;;;5011987;28;20097;-68
2021/07/12 00:07:57;;;;;;;8.15;4.53;;;;;;;;;;5013757;28;20096;-67
2021/07/12 00:10:24;;;;;;;9.57;5.47;;;;;;;;;;5015524;28;20053;-67
2021/07/12 00:12:51;;;;;;;9.43;4.70;;;;;;;;;;5015397;28;20037;-67
2021/07/12 00:15:18;;;;;;;6.63;4.63;;;;;;;;;;5015414;28;20022;-68
2021/07/12 00:17:46;;;;;;;9.32;5.35;;;;;;;;;;5015510;28;20105;-67
2021/07/12 00:20:13;;;;;;;6.68;4.68;;;;;;;;;;5015347;28;20025;-67
2021/07/12 00:22:39;;;;;;;7.20;5.13;;;;;;;;;;5015537;28;20042;-67
2021/07/12 00:25:06;;;;;;;6.00;4.70;;;;;;;;;;5015383;28;20037;-66
2021/07/12 00:27:33;;;;;;;6.60;4.90;;;;;;;;;;5015232;28;20052;-66
2021/07/12 00:30:00;;;;;;;7.88;4.45;;;;;;;;;;5015175;28;20030;-66
2021/07/12 00:32:26;;;;;;;7.13;5.00;;;;;;;;;;5015198;28;20022;-66
2021/07/12 00:34:52;;;;;;;9.32;4.97;;;;;;;;;;5017734;28;20032;-68
2021/07/12 00:37:18;;;;;;;8.00;4.53;;;;;;;;;;5027689;28;20072;-67
2021/07/12 00:39:44;;;;;;;8.52;4.78;;;;;;;;;;5015000;28;20030;-68
2021/07/12 00:42:11;;;;;;;6.22;4.47;;;;;;;;;;5015185;28;20025;-67
2021/07/12 00:44:37;;;;;;;8.02;4.00;;;;;;;;;;5014946;28;20100;-68
2021/07/12 00:47:05;;;;;;;6.65;4.03;;;;;;;;;;5014841;28;20022;-68
2021/07/12 00:49:31;;;;;;;5.25;3.70;;;;;;;;;;5014856;28;20025;-66
2021/07/12 00:51:57;;;;;;;6.22;3.78;;;;;;;;;;5014932;28;20022;-66
2021/07/12 00:54:27;;;;;;;7.05;4.05;;;;;;;;;;5015016;28;20018;-67
2021/07/12 00:56:57;;;;;;;6.10;3.97;;;;;;;;;;5014704;28;20033;-67
2021/07/12 00:59:24;;;;;;;7.05;3.60;;;;;;;;;;5015098;28;20030;-67
2021/07/12 01:01:50;;;;;;;5.85;3.88;;;;;;;;;;5014596;28;20029;-66
2021/07/12 01:04:16;;;;;;;7.82;3.95;;;;;;;;;;5014677;28;20514;-67
2021/07/12 01:06:42;;;;;;;7.22;4.35;;;;;;;;;;5014478;28;20029;-67
2021/07/12 01:09:08;;;;;;;5.20;4.05;;;;;;;;;;5014426;28;20030;-67
2021/07/12 01:11:40;;;;;;;8.93;4.18;;;;;;;;;;5014452;28;20026;-67
2021/07/12 01:14:15;;;;;;;6.40;3.90;;;;;;;;;;5014403;28;20021;-67
2021/07/12 01:16:45;;;;;;;7.50;4.00;;;;;;;;;;5014715;28;20322;-67
2021/07/12 01:19:15;;;;;;;9.52;4.13;;;;;;;;;;5014247;28;20060;-67
2021/07/12 01:21:50;;;;;;;9.02;4.53;;;;;;;;;;5014140;28;20036;-67
2021/07/12 01:24:25;;;;;;;5.72;4.13;;;;;;;;;;5014245;28;20080;-67
2021/07/12 01:27:10;;;;;;;6.68;3.97;;;;;;;;;;5014148;28;20488;-66
2021/07/12 01:29:45;;;;;;;5.63;4.03;;;;;;;;;;5014079;28;20037;-67
2021/07/12 01:32:30;;;;;;;7.35;4.40;;;;;;;;;;5014128;28;20049;-67
2021/07/12 01:35:09;;;;;;;4.63;3.93;;;;;;;;;;5013733;28;20530;-66
2021/07/12 01:37:40;;;;;;;5.75;3.67;;;;;;;;;;5013739;28;20312;-66
2021/07/12 01:40:19;;;;;;;5.00;4.00;;;;;;;;;;5013901;28;20044;-67
2021/07/12 01:42:51;;;;;;;5.30;4.13;;;;;;;;;;5013936;28;20168;-67
2021/07/12 01:45:18;;;;;;;6.00;3.85;;;;;;;;;;5013727;28;20049;-67
2021/07/12 01:48:02;;;;;;;5.82;4.40;;;;;;;;;;5013649;28;20026;-67
2021/07/12 01:50:28;;;;;;;6.35;4.43;;;;;;;;;;5012320;28;20107;-67
2021/07/12 01:52:57;;;;;;;5.80;4.57;;;;;;;;;;5013734;28;20198;-67
2021/07/12 01:55:38;;;;;;;6.30;4.50;;;;;;;;;;5013688;28;20098;-67
2021/07/12 01:58:20;;;;;;;8.25;4.25;;;;;;;;;;5013889;28;20106;-67
2021/07/12 02:00:46;;;;;;;5.03;4.07;;;;;;;;;;5013509;28;20026;-67
2021/07/12 02:03:16;;;;;;;5.20;4.30;;;;;;;;;;5013589;28;20145;-67
2021/07/12 02:05:43;;;;;;;5.40;4.10;;;;;;;;;;5013283;28;20018;-67
2021/07/12 02:08:10;;;;;;;6.57;4.65;;;;;;;;;;5013225;28;20113;-67
2021/07/12 02:10:38;;;;;;;5.78;4.55;;;;;;;;;;5013335;28;20017;-66
2021/07/12 02:13:05;;;;;;;9.13;4.80;;;;;;;;;;5013374;28;20049;-67
2021/07/12 02:15:34;;;;;;;7.05;5.22;;;;;;;;;;5013225;28;20029;-67
2021/07/12 02:18:01;;;;;;;7.40;5.47;;;;;;;;;;5013280;28;20033;-67
2021/07/12 02:20:27;;;;;;;5.80;4.55;;;;;;;;;;5013096;28;20029;-68
2021/07/12 02:22:54;;;;;;;7.10;4.55;;;;;;;;;;5013286;28;20030;-67
2021/07/12 02:25:21;;;;;;;7.57;5.15;;;;;;;;;;5013361;28;20112;-66
2021/07/12 02:27:47;;;;;;;6.25;5.00;;;;;;;;;;5013220;28;20026;-67
2021/07/12 02:30:14;;;;;;;7.60;5.40;;;;;;;;;;5012963;28;20033;-66
2021/07/12 02:32:41;;;;;;;7.60;5.40;;;;;;;;;;5012866;28;20026;-67
2021/07/12 02:35:12;;;;;;;8.25;5.53;;;;;;;;;;5012939;28;20014;-67
2021/07/12 02:37:39;;;;;;;6.75;5.32;;;;;;;;;;5013078;28;20045;-67
2021/07/12 02:40:07;;;;;;;7.60;5.20;;;;;;;;;;5012902;28;20037;-67
2021/07/12 02:42:34;;;;;;;8.55;5.20;;;;;;;;;;5013110;28;20435;-67
2021/07/12 02:45:01;;;;;;;8.68;6.28;;;;;;;;;;5013092;28;20030;-66
2021/07/12 02:47:27;;;;;;;8.90;5.30;;;;;;;;;;5012489;28;20038;-67
2021/07/12 02:49:53;;;;;;;8.25;4.82;;;;;;;;;;5012736;28;20028;-67
2021/07/12 02:52:30;;;;;;;8.20;5.30;;;;;;;;;;5012829;28;20097;-67
2021/07/12 02:54:59;;;;;;;8.80;5.07;;;;;;;;;;5012743;28;20427;-66
2021/07/12 02:57:27;;;;;;;8.25;5.47;;;;;;;;;;5013199;28;20026;-67
2021/07/12 02:59:53;;;;;;;10.00;5.78;;;;;;;;;;5012741;28;20408;-67
2021/07/12 03:02:19;;;;;;;8.73;6.15;;;;;;;;;;5012428;28;20050;-67
2021/07/12 03:04:45;;;;;;;10.27;6.35;;;;;;;;;;5012674;28;20029;-67
2021/07/12 03:07:15;;;;;;;12.75;6.82;;;;;;;;;;5012716;28;20022;-67
2021/07/12 03:09:42;;;;;;;11.88;6.13;;;;;;;;;;5012650;28;20109;-67
2021/07/12 03:12:13;;;;;;;12.23;6.95;;;;;;;;;;5012594;28;20026;-67
2021/07/12 03:15:15;;;;;;;7.85;5.28;;;;;;;;;;5012907;28;20022;-67
2021/07/12 03:17:52;;;;;;;7.97;5.90;;;;;;;;;;4932654;29;20421;-67
2021/07/12 03:20:19;;;;;;;11.02;6.38;;;;;;;;;;4985209;28;20481;-67
2021/07/12 03:22:49;;;;;;;8.38;6.40;;;;;;;;;;5012390;28;20026;-67
2021/07/12 03:25:18;;;;;;;10.85;6.95;;;;;;;;;;5012536;28;20026;-67
2021/07/12 03:27:45;;;;;;;10.30;6.90;;;;;;;;;;5012501;28;20552;-67
2021/07/12 03:30:11;;;;;;;10.65;7.50;;;;;;;;;;5012340;28;20096;-66
2021/07/12 03:32:37;;;;;;;12.23;7.90;;;;;;;;;;5012477;28;20026;-67
2021/07/12 03:35:04;;;;;;;14.13;8.13;;;;;;;;;;5012326;28;20388;-67
2021/07/12 03:37:30;;;;;;;11.95;7.95;;;;;;;;;;5012666;28;20046;-67
2021/07/12 03:39:57;;;;;;;10.85;7.05;;;;;;;;;;5012411;28;20030;-67
2021/07/12 03:42:23;;;;;;;11.98;8.05;;;;;;;;;;5013364;28;20034;-67
2021/07/12 03:44:51;;;;;;;12.55;7.75;;;;;;;;;;5016375;28;20365;-67
2021/07/12 03:47:28;;;;;;;16.20;8.52;;;;;;;;;;5016088;28;20153;-67
2021/07/12 03:50:02;;;;;;;12.85;7.85;;;;;;;;;;5016010;28;20097;-67
2021/07/12 03:52:30;;;;;;;16.38;8.38;;;;;;;;;;5016203;28;20026;-67
2021/07/12 03:54:56;;;;;;;16.63;8.65;;;;;;;;;;5015863;28;20029;-67
2021/07/12 03:57:23;;;;;;;12.52;7.60;;;;;;;;;;5015854;28;20026;-66
2021/07/12 03:59:49;;;;;;;15.35;8.50;;;;;;;;;;5015601;28;20034;-67
2021/07/12 04:02:15;;;;;;;12.80;8.38;;;;;;;;;;5014590;28;20482;-67
2021/07/12 04:04:41;;;;;;;12.95;8.13;;;;;;;;;;5015722;28;20022;-67
2021/07/12 04:07:07;;;;;;;12.80;8.35;;;;;;;;;;5015608;28;20021;-67
2021/07/12 04:09:33;;;;;;;11.52;7.72;;;;;;;;;;5015577;28;20484;-66
2021/07/12 04:11:59;;;;;;;12.57;8.10;;;;;;;;;;5015547;28;20052;-66
2021/07/12 04:14:26;;;;;;;13.65;9.00;;;;;;;;;;5015942;28;20026;-66
2021/07/12 04:16:52;;;;;;;14.15;8.00;;;;;;;;;;5015486;28;20523;-67
2021/07/12 04:19:18;;;;;;;12.55;7.88;;;;;;;;;;5015450;28;20109;-67
2021/07/12 04:21:44;;;;;;;11.68;7.72;;;;;;;;;;5014132;28;20029;-66
2021/07/12 04:24:10;;;;;;;12.15;8.27;;;;;;;;;;5015282;28;20088;-67
2021/07/12 04:26:36;;;;;;;15.77;7.35;;;;;;;;;;5015312;28;20365;-67
2021/07/12 04:29:02;;;;;;;13.07;7.68;;;;;;;;;;5015033;28;20079;-67
2021/07/12 04:31:28;;;;;;;12.88;7.80;;;;;;;;;;5015192;28;20026;-66
2021/07/12 04:33:54;;;;;;;10.02;6.40;;;;;;;;;;5015215;28;20022;-67
2021/07/12 04:36:20;;;;;;;11.15;7.65;;;;;;;;;;5027857;28;20492;-66
2021/07/12 04:38:46;;;;;;;11.88;7.68;;;;;;;;;;5034729;28;20411;-67
2021/07/12 04:41:12;;;;;;;13.30;8.02;;;;;;;;;;5034775;28;20455;-66
2021/07/12 04:43:38;;;;;;;9.07;5.95;;;;;;;;;;5034712;28;20022;-67
2021/07/12 04:46:04;;;;;;;9.73;5.72;;;;;;;;;;5034650;28;20108;-67
2021/07/12 04:48:30;;;;;;;9.50;6.88;;;;;;;;;;5034794;28;20423;-66
2021/07/12 04:50:57;;;;;;;8.95;6.20;;;;;;;;;;5034635;28;20017;-66
2021/07/12 04:53:23;;;;;;;10.40;6.30;;;;;;;;;;5034432;28;20029;-67
2021/07/12 04:55:49;;;;;;;9.88;5.70;;;;;;;;;;5034588;28;20080;-66
2021/07/12 04:58:15;;;;;;;9.25;5.15;;;;;;;;;;5034342;28;20029;-66
2021/07/12 05:00:41;;;;;;;8.48;6.05;;;;;;;;;;5034621;28;20430;-67
2021/07/12 05:03:08;;;;;;;10.82;6.57;;;;;;;;;;5034626;28;20112;-66
2021/07/12 05:05:34;;;;;;;8.93;6.07;;;;;;;;;;5034399;28;20026;-66
2021/07/12 05:08:00;;;;;;;9.05;5.78;;;;;;;;;;5034521;28;20388;-67
2021/07/12 05:10:26;;;;;;;12.43;6.43;;;;;;;;;;5034465;28;20049;-67
2021/07/12 05:12:52;;;;;;;8.65;5.43;;;;;;;;;;5034038;28;20472;-67
2021/07/12 05:15:18;;;;;;;8.45;6.32;;;;;;;;;;5034483;28;20036;-67
2021/07/12 05:17:44;;;;;;;9.43;6.15;;;;;;;;;;5034153;28;20057;-66
2021/07/12 05:20:11;;;;;;;9.27;6.90;;;;;;;;;;5034074;28;20216;-67
2021/07/12 05:22:37;;;;;;;8.13;5.63;;;;;;;;;;5034337;28;20032;-67
2021/07/12 05:25:04;;;;;;;7.72;5.97;;;;;;;;;;5033356;28;20115;-66
2021/07/12 05:27:30;;;;;;;9.15;5.43;;;;;;;;;;5033982;28;20075;-66
2021/07/12 05:29:56;;;;;;;7.47;5.13;;;;;;;;;;5033986;28;20025;-66
2021/07/12 05:32:22;;;;;;;7.75;4.85;;;;;;;;;;5033751;28;20022;-66
2021/07/12 05:34:48;;;;;;;7.63;4.40;;;;;;;;;;5015279;28;20028;-66
2021/07/12 05:37:14;;;;;;;6.28;4.78;;;;;;;;;;5013847;28;20120;-66
2021/07/12 05:39:40;;;;;;;6.88;4.97;;;;;;;;;;5013918;28;20495;-68
2021/07/12 05:42:06;;;;;;;11.20;5.68;;;;;;;;;;5013752;28;20032;-68
2021/07/12 05:44:32;;;;;;;7.85;5.35;;;;;;;;;;5013839;28;20022;-67
2021/07/12 05:46:58;;;;;;;9.38;6.50;;;;;;;;;;5013850;28;20022;-65
2021/07/12 05:49:24;;;;;;;7.57;5.00;;;;;;;;;;5013917;28;20044;-66
2021/07/12 05:51:50;;;;;;;9.95;5.75;;;;;;;;;;5013699;28;20117;-66
2021/07/12 05:54:16;;;;;;;9.15;6.05;;;;;;;;;;5012421;28;20427;-67
2021/07/12 05:56:43;;;;;;;8.18;5.47;;;;;;;;;;5013754;28;20431;-66
2021/07/12 05:59:09;;;;;;;7.70;5.65;;;;;;;;;;5013620;28;20022;-66
2021/07/12 06:01:35;;;;;;;9.18;6.25;;;;;;;;;;5017828;28;20109;-66
2021/07/12 06:04:01;;;;;;;7.22;5.00;;;;;;;;;;5033474;28;20108;-66
2021/07/12 06:06:27;;;;;;;10.52;6.82;;;;;;;;;;5032024;28;20036;-66
2021/07/12 06:08:53;;;;;;;8.38;5.93;;;;;;;;;;5033025;28;20088;-66
2021/07/12 06:11:19;;;;;;;10.25;5.88;;;;;;;;;;5032998;28;20053;-66
2021/07/12 06:13:45;;;;;;;9.85;6.50;;;;;;;;;;5033092;28;20464;-66
2021/07/12 06:16:11;;;;;;;11.82;6.90;;;;;;;;;;5033264;28;20021;-67
2021/07/12 06:18:37;;;;;;;11.13;6.45;;;;;;;;;;5031823;28;20033;-66
2021/07/12 06:21:03;;;;;;;9.70;6.65;;;;;;;;;;5033081;28;20021;-66
2021/07/12 06:23:29;;;;;;;11.38;6.82;;;;;;;;;;5031243;28;20091;-67
2021/07/12 06:25:55;;;;;;;9.85;6.72;;;;;;;;;;5032764;28;20029;-67
2021/07/12 06:28:22;;;;;;;9.98;7.32;;;;;;;;;;5033135;28;20034;-67
2021/07/12 06:30:48;;;;;;;9.60;6.50;;;;;;;;;;5032841;28;20578;-67
2021/07/12 06:33:14;;;;;;;9.05;5.90;;;;;;;;;;5032844;28;20030;-67
2021/07/12 06:35:40;;;;;;;10.57;6.65;;;;;;;;;;5024772;28;20032;-67
2021/07/12 06:38:06;;;;;;;8.20;6.20;;;;;;;;;;5013075;28;20112;-67
2021/07/12 06:40:32;;;;;;;11.55;6.90;;;;;;;;;;5014420;28;20082;-67
2021/07/12 06:42:58;;;;;;;8.93;5.70;;;;;;;;;;5032691;28;20083;-67
2021/07/12 06:45:24;;;;;;;9.52;6.60;;;;;;;;;;5032958;28;20031;-66
2021/07/12 06:47:50;;;;;;;9.75;6.13;;;;;;;;;;5032551;28;20032;-67
2021/07/12 06:50:16;;;;;;;8.93;6.50;;;;;;;;;;5032855;28;20021;-65
2021/07/12 06:52:42;;;;;;;8.68;6.40;;;;;;;;;;5032809;28;20365;-66
2021/07/12 06:55:09;;;;;;;8.07;6.13;;;;;;;;;;5032362;28;20022;-68
2021/07/12 06:57:35;;;;;;;7.60;5.60;;;;;;;;;;5032409;28;20476;-68
2021/07/12 07:00:01;;;;;;;7.28;5.15;;;;;;;;;;5032022;28;20033;-68
2021/07/12 07:02:27;;;;;;;7.18;5.60;;;;;;;;;;5019634;28;20026;-68
2021/07/12 07:04:53;;;;;;;7.57;4.80;;;;;;;;;;5019373;28;20056;-68
2021/07/12 07:07:19;;;;;;;6.45;5.18;;;;;;;;;;5025465;28;20026;-69
2021/07/12 07:09:45;;;;;;;6.68;4.82;;;;;;;;;;5026690;28;20034;-67
2021/07/12 07:12:11;;;;;;;5.45;4.68;;;;;;;;;;5029048;28;20075;-68
2021/07/12 07:14:37;;;;;;;6.95;4.68;;;;;;;;;;5026390;28;20068;-68
2021/07/12 07:17:04;;;;;;;5.45;4.10;;;;;;;;;;5020145;28;20029;-68
2021/07/12 07:19:30;;;;;;;5.70;4.43;;;;;;;;;;5025643;28;20112;-66
2021/07/12 07:21:56;;;;;;;5.22;4.20;;;;;;;;;;5032030;28;20048;-66
2021/07/12 07:24:22;;;;;;;5.03;4.18;;;;;;;;;;5032010;28;20025;-66
2021/07/12 07:26:48;;;;;;;9.00;4.90;;;;;;;;;;5032645;28;20029;-67
2021/07/12 07:29:15;;;;;;;6.60;4.47;;;;;;;;;;5029501;28;20091;-68
2021/07/12 07:31:42;;;;;;;5.85;4.43;;;;;;;;;;5032138;28;20029;-63
2021/07/12 07:34:08;;;;;;;5.20;4.35;;;;;;;;;;5032567;28;20026;-68
2021/07/12 07:36:34;;;;;;;5.45;4.28;;;;;;;;;;5017964;28;20046;-67
2021/07/12 07:39:04;;;;;;;6.03;4.38;;;;;;;;;;5025637;28;20625;-68
2021/07/12 07:41:30;;;;;;;7.20;4.00;;;;;;;;;;5032303;28;20547;-67
2021/07/12 07:43:56;;;;;;;6.35;4.35;;;;;;;;;;5032687;28;20496;-67
2021/07/12 07:46:22;;;;;;;5.85;4.63;;;;;;;;;;5021604;28;20045;-67
2021/07/12 07:48:48;;;;;;;6.22;4.60;;;;;;;;;;5022748;28;20063;-66
2021/07/12 07:51:15;;;;;;;5.65;4.70;;;;;;;;;;5011981;28;20443;-67
2021/07/12 07:53:45;;;;;;;10.05;5.22;;;;;;;;;;5014401;28;20057;-70
2021/07/12 07:56:12;;;;;;;7.10;5.18;;;;;;;;;;5005504;28;20505;-66
2021/07/12 07:58:38;;;;;;;5.15;4.63;;;;;;;;;;5018933;28;20029;-67
2021/07/12 08:01:04;;;;;;;5.88;4.47;;;;;;;;;;5017791;28;20034;-67
2021/07/12 08:03:30;;;;;;;5.35;4.45;;;;;;;;;;5023854;28;20404;-66
2021/07/12 08:05:56;;;;;;;14.23;4.80;;;;;;;;;;5021741;28;20125;-68
2021/07/12 08:08:22;;;;;;;5.85;4.70;;;;;;;;;;5015704;28;20044;-67
2021/07/12 08:10:48;;;;;;;5.28;4.43;;;;;;;;;;5019141;28;20056;-68
2021/07/12 08:13:14;;;;;;;7.22;4.57;;;;;;;;;;5029254;28;20403;-67
2021/07/12 08:15:47;;;;;;;7.68;4.88;;;;;;;;;;5018437;28;20048;-72
2021/07/12 08:18:14;;;;;;;5.68;4.15;;;;;;;;;;5017302;28;20671;-68
2021/07/12 08:20:44;;;;;;;7.30;4.35;;;;;;;;;;5024181;28;20030;-68
2021/07/12 08:23:11;;;;;;;5.78;4.50;;;;;;;;;;5017754;28;20119;-68
2021/07/12 08:25:37;;;;;;;5.72;4.50;;;;;;;;;;5014528;28;20029;-67
2021/07/12 08:28:04;;;;;;;5.72;4.30;;;;;;;;;;5014876;28;20038;-66
2021/07/12 08:30:30;;;;;;;5.57;4.20;;;;;;;;;;5021312;28;20056;-67
2021/07/12 08:32:56;;;;;;;4.38;3.80;;;;;;;;;;5018635;28;20171;-67
2021/07/12 08:35:23;;;;;;;5.28;3.70;;;;;;;;;;5020385;28;20792;-67
2021/07/12 08:37:49;;;;;;;5.45;4.10;;;;;;;;;;5024167;28;20053;-69
2021/07/12 08:40:16;;;;;;;11.70;4.78;;;;;;;;;;5011417;28;20088;-68
2021/07/12 08:42:42;;;;;;;6.22;4.22;;;;;;;;;;5021488;28;20108;-67
2021/07/12 08:45:08;;;;;;;4.30;3.60;;;;;;;;;;5015393;28;20116;-66
2021/07/12 08:47:35;;;;;;;6.35;3.83;;;;;;;;;;5016714;28;20507;-66
2021/07/12 08:50:01;;;;;;;4.30;3.47;;;;;;;;;;5024505;28;20087;-68
2021/07/12 08:52:27;;;;;;;4.07;3.25;;;;;;;;;;5011151;28;20645;-68
2021/07/12 08:54:53;;;;;;;6.20;3.53;;;;;;;;;;5023452;28;20040;-66
2021/07/12 08:57:20;;;;;;;5.78;3.40;;;;;;;;;;5012887;28;20022;-67
2021/07/12 08:59:46;;;;;;;5.30;2.97;;;;;;;;;;5021913;28;20068;-66
2021/07/12 09:02:16;;;;;;;3.92;3.00;;;;;;;;;;5017888;28;20044;-67
2021/07/12 09:04:43;;;;;;;5.30;2.80;;;;;;;;;;5021540;28;20064;-67
2021/07/12 09:07:10;;;;;;;4.70;3.28;;;;;;;;;;4994246;28;20026;-67
2021/07/12 09:09:37;;;;;;;5.00;3.40;;;;;;;;;;5024840;28;20526;-66
2021/07/12 09:12:09;;;;;;;3.60;2.90;;;;;;;;;;5014944;28;20038;-66
2021/07/12 09:14:39;;;;;;;3.00;2.70;;;;;;;;;;5015313;28;20113;-66
2021/07/12 09:17:05;;;;;;;3.25;2.80;;;;;;;;;;5018008;28;20403;-67
2021/07/12 09:19:33;;;;;;;3.80;2.83;;;;;;;;;;5017834;28;20033;-67
2021/07/12 09:22:02;;;;;;;3.67;2.85;;;;;;;;;;5006640;28;20029;-69
2021/07/12 09:24:32;;;;;;;8.27;4.25;;;;;;;;;;5018530;28;20119;-68
2021/07/12 09:27:15;;;;;;;6.20;4.38;;;;;;;;;;5026233;28;20120;-68
2021/07/12 09:29:42;;;;;;;8.80;6.15;;;;;;;;;;5021413;28;20025;-69
2021/07/12 09:32:10;;;;;;;8.23;6.60;;;;;;;;;;5017008;28;20029;-67
2021/07/12 09:34:37;;;;;;;10.57;6.70;;;;;;;;;;5022526;28;20026;-67
2021/07/12 09:37:04;;;;;;;9.27;6.82;;;;;;;;;;5020107;28;20045;-69
2021/07/12 09:39:30;;;;;;;10.20;6.75;;;;;;;;;;5021190;28;20084;-68
2021/07/12 09:41:57;;;;;;;9.48;6.22;;;;;;;;;;5025609;28;20037;-67
2021/07/12 09:44:25;;;;;;;8.57;6.38;;;;;;;;;;5019674;28;20169;-67
2021/07/12 09:46:51;;;;;;;9.88;7.35;;;;;;;;;;5017752;28;20040;-67
2021/07/12 09:49:22;;;;;;;14.35;7.38;;;;;;;;;;5022928;28;20686;-67
2021/07/12 09:51:48;;;;;;;9.80;6.63;;;;;;;;;;5016181;28;20136;-67
2021/07/12 09:54:25;;;;;;;7.55;5.82;;;;;;;;;;5018728;28;20029;-68
2021/07/12 09:56:53;;;;;;;8.15;5.75;;;;;;;;;;5028549;28;20021;-68
2021/07/12 09:59:19;;;;;;;4.88;3.97;;;;;;;;;;5018940;28;20113;-67
2021/07/12 10:01:46;;;;;;;5.53;4.20;;;;;;;;;;5022759;28;20052;-68
2021/07/12 10:04:13;;;;;;;16.98;5.20;;;;;;;;;;5024268;28;20042;-66
2021/07/12 10:06:40;;;;;;;5.13;4.40;;;;;;;;;;5029056;28;20032;-67
2021/07/12 10:09:07;;;;;;;7.47;5.05;;;;;;;;;;5020168;28;20046;-67
2021/07/12 10:11:34;;;;;;;8.13;5.65;;;;;;;;;;5011482;28;20053;-69
2021/07/12 10:14:00;;;;;;;7.55;5.30;;;;;;;;;;5020622;28;20029;-69
2021/07/12 10:16:27;;;;;;;6.05;4.65;;;;;;;;;;5014149;28;20069;-68
2021/07/12 10:18:53;;;;;;;5.85;4.53;;;;;;;;;;5015530;28;20026;-68
2021/07/12 10:21:19;;;;;;;5.90;4.57;;;;;;;;;;5016712;28;20042;-68
2021/07/12 10:23:46;;;;;;;6.30;4.88;;;;;;;;;;5015352;28;20516;-70
2021/07/12 10:26:12;;;;;;;6.07;4.60;;;;;;;;;;5018612;28;20033;-68
2021/07/12 10:28:39;;;;;;;7.00;4.60;;;;;;;;;;5024014;28;20029;-66
2021/07/12 10:31:21;;;;;;;5.68;4.63;;;;;;;;;;5011588;28;20030;-68
2021/07/12 10:33:48;;;;;;;5.80;4.95;;;;;;;;;;5023054;28;20151;-68
2021/07/12 10:36:34;;;;;;;5.25;4.55;;;;;;;;;;5013105;28;20038;-67
2021/07/12 10:39:00;;;;;;;6.63;4.45;;;;;;;;;;5007619;28;20167;-67
2021/07/12 10:41:27;;;;;;;5.65;4.95;;;;;;;;;;5017836;28;20033;-67
2021/07/12 10:43:57;;;;;;;5.82;4.47;;;;;;;;;;5020231;28;20400;-69
2021/07/12 10:46:32;;;;;;;6.10;4.72;;;;;;;;;;5015694;28;20033;-68
2021/07/12 10:48:59;;;;;;;6.53;5.25;;;;;;;;;;5017320;28;20507;-68
2021/07/12 10:51:32;;;;;;;5.72;4.50;;;;;;;;;;5024300;28;20038;-66
2021/07/12 10:54:05;;;;;;;6.45;4.82;;;;;;;;;;5015743;28;20033;-66
2021/07/12 10:56:41;;;;;;;5.80;4.28;;;;;;;;;;5024738;28;20037;-66
2021/07/12 10:59:08;;;;;;;8.40;4.63;;;;;;;;;;5011011;28;20025;-67
2021/07/12 11:01:38;;;;;;;4.70;3.92;;;;;;;;;;5017642;28;20072;-67
2021/07/12 11:04:24;;;;;;;4.05;3.25;;;;;;;;;;5017016;28;20068;-67
2021/07/12 11:06:54;;;;;;;4.05;3.47;;;;;;;;;;5018961;28;20037;-67
2021/07/12 11:09:40;;;;;;;3.58;3.15;;;;;;;;;;5027887;28;20052;-66
2021/07/12 11:12:25;;;;;;;6.10;4.15;;;;;;;;;;5011298;28;20057;-68
2021/07/12 11:15:10;;;;;;;4.03;3.17;;;;;;;;;;5019909;28;20463;-68
2021/07/12 11:18:02;;;;;;;4.28;3.78;;;;;;;;;;5014650;28;20042;-65
2021/07/12 11:20:51;;;;;;;3.50;2.72;;;;;;;;;;5005862;28;20117;-67
2021/07/12 11:23:36;;;;;;;5.00;3.55;;;;;;;;;;5000969;28;20038;-67
2021/07/12 11:26:02;;;;;;;5.13;3.50;;;;;;;;;;5015924;28;20034;-67
2021/07/12 11:28:44;;;;;;;3.75;3.33;;;;;;;;;;5012316;28;20085;-66
2021/07/12 11:31:28;;;;;;;4.15;3.42;;;;;;;;;;5015781;28;20038;-68
2021/07/12 11:34:01;;;;;;;4.20;3.60;;;;;;;;;;5020675;28;20024;-67
2021/07/12 11:36:27;;;;;;;4.90;3.92;;;;;;;;;;5016467;28;20045;-67
2021/07/12 11:38:53;;;;;;;3.75;3.10;;;;;;;;;;5020555;28;20037;-68
2021/07/12 11:41:23;;;;;;;4.28;3.50;;;;;;;;;;5008369;28;20046;-69
2021/07/12 11:44:08;;;;;;;4.65;3.63;;;;;;;;;;5013639;28;20517;-68
2021/07/12 11:46:35;;;;;;;3.90;3.10;;;;;;;;;;5010383;28;20082;-67
2021/07/12 11:49:08;;;;;;;6.90;3.30;;;;;;;;;;5011882;28;20289;-68
2021/07/12 11:51:34;;;;;;;3.03;2.72;;;;;;;;;;5013236;28;20032;-68
2021/07/12 11:54:01;;;;;;;3.47;2.90;;;;;;;;;;5019998;28;20034;-68
2021/07/12 11:56:27;;;;;;;2.72;2.40;;;;;;;;;;5017105;28;20125;-67
2021/07/12 11:58:59;;;;;;;4.60;2.92;;;;;;;;;;5016867;28;20113;-67
2021/07/12 12:01:28;;;;;;;2.72;2.20;;;;;;;;;;5018650;28;20377;-67
2021/07/12 12:04:04;;;;;;;3.58;2.80;;;;;;;;;;5029256;28;20029;-67
2021/07/12 12:06:31;;;;;;;3.55;2.83;;;;;;;;;;5032152;28;20049;-68
2021/07/12 12:09:01;;;;;;;4.38;2.60;;;;;;;;;;5032151;28;20033;-68
2021/07/12 12:11:30;;;;;;;3.30;2.70;;;;;;;;;;5031850;28;20050;-68
2021/07/12 12:13:56;;;;;;;3.30;2.95;;;;;;;;;;5031657;28;20037;-68
2021/07/12 12:16:26;;;;;;;3.45;3.05;;;;;;;;;;5031755;28;20056;-68
2021/07/12 12:18:54;;;;;;;2.92;2.58;;;;;;;;;;5031916;28;20036;-68
2021/07/12 12:21:20;;;;;;;3.58;2.50;;;;;;;;;;5031944;28;20037;-68
2021/07/12 12:23:46;;;;;;;3.97;3.03;;;;;;;;;;5031945;28;20447;-67
2021/07/12 12:26:15;;;;;;;3.80;2.53;;;;;;;;;;5032053;28;20032;-67
2021/07/12 12:28:48;;;;;;;3.72;2.55;;;;;;;;;;5031757;28;20511;-68
2021/07/12 12:31:15;;;;;;;3.10;2.75;;;;;;;;;;5031185;28;20064;-68
2021/07/12 12:33:43;;;;;;;3.97;2.72;;;;;;;;;;5031402;28;20108;-68
2021/07/12 12:36:19;;;;;;;3.30;2.80;;;;;;;;;;5030712;28;20041;-68
2021/07/12 12:38:59;;;;;;;2.88;2.50;;;;;;;;;;5022127;28;20123;-68
2021/07/12 12:41:29;;;;;;;3.13;2.78;;;;;;;;;;5031141;28;20025;-69
2021/07/12 12:44:02;;;;;;;3.15;2.55;;;;;;;;;;5031122;28;20396;-70
2021/07/12 12:46:29;;;;;;;3.30;2.80;;;;;;;;;;5026823;28;20065;-70
2021/07/12 12:48:55;;;;;;;3.17;2.50;;;;;;;;;;5031163;28;20042;-69
2021/07/12 12:51:31;;;;;;;4.68;2.85;;;;;;;;;;5022583;28;20022;-69
2021/07/12 12:53:57;;;;;;;3.33;2.65;;;;;;;;;;5030199;28;20368;-68
2021/07/12 12:56:23;;;;;;;2.97;2.50;;;;;;;;;;5031964;28;20053;-68
2021/07/12 12:59:03;;;;;;;3.35;2.35;;;;;;;;;;5030895;28;20390;-69
2021/07/12 13:01:30;;;;;;;4.97;2.42;;;;;;;;;;5028357;28;20029;-68
2021/07/12 13:04:04;;;;;;;2.63;2.40;;;;;;;;;;5030465;28;20034;-68
2021/07/12 13:06:37;;;;;;;4.18;2.80;;;;;;;;;;5016761;28;20299;-69
2021/07/12 13:09:03;;;;;;;3.78;2.65;;;;;;;;;;5024430;28;20044;-68
2021/07/12 13:11:29;;;;;;;4.22;2.88;;;;;;;;;;5030438;28;20025;-69
2021/07/12 13:13:55;;;;;;;6.97;3.10;;;;;;;;;;5030984;28;20033;-70
2021/07/12 13:16:22;;;;;;;2.85;2.55;;;;;;;;;;5024030;28;20387;-68
2021/07/12 13:18:51;;;;;;;3.33;3.03;;;;;;;;;;5027180;28;20036;-68
2021/07/12 13:21:17;;;;;;;4.38;2.72;;;;;;;;;;5029818;28;20037;-68
2021/07/12 13:23:46;;;;;;;3.10;2.80;;;;;;;;;;5030150;28;20037;-69
2021/07/12 13:26:12;;;;;;;2.92;2.63;;;;;;;;;;5019242;28;20742;-69
2021/07/12 13:28:39;;;;;;;5.97;2.90;;;;;;;;;;5026012;28;20601;-68
2021/07/12 13:31:05;;;;;;;4.22;2.80;;;;;;;;;;5019946;28;20017;-69
2021/07/12 13:33:31;;;;;;;4.70;2.85;;;;;;;;;;5017250;28;20037;-69
2021/07/12 13:35:57;;;;;;;2.80;2.60;;;;;;;;;;5014030;28;20045;-69
2021/07/12 13:38:24;;;;;;;3.47;2.80;;;;;;;;;;5014332;28;20049;-69
2021/07/12 13:40:51;;;;;;;3.53;2.63;;;;;;;;;;5013502;28;20046;-68
2021/07/12 13:43:17;;;;;;;3.20;2.70;;;;;;;;;;5011821;28;20558;-71
2021/07/12 13:45:43;;;;;;;3.38;2.85;;;;;;;;;;5011642;28;20392;-69
2021/07/12 13:48:10;;;;;;;2.97;2.58;;;;;;;;;;5013378;28;20041;-69
2021/07/12 13:50:37;;;;;;;3.03;2.60;;;;;;;;;;5016958;28;20049;-69
2021/07/12 13:53:04;;;;;;;3.40;2.90;;;;;;;;;;5015436;28;20022;-69
2021/07/12 13:55:31;;;;;;;3.00;2.33;;;;;;;;;;5015859;28;20524;-69
2021/07/12 13:57:58;;;;;;;4.15;2.85;;;;;;;;;;5020320;28;20091;-71
2021/07/12 14:00:26;;;;;;;3.88;2.70;;;;;;;;;;5013438;28;20556;-70
2021/07/12 14:02:52;;;;;;;2.67;2.47;;;;;;;;;;5022110;28;20043;-69
2021/07/12 14:05:19;;;;;;;2.63;2.35;;;;;;;;;;5023459;28;20053;-68
2021/07/12 14:07:45;;;;;;;3.17;2.80;;;;;;;;;;5016629;28;20488;-70
2021/07/12 14:10:12;;;;;;;3.47;2.45;;;;;;;;;;5012071;28;20362;-69
2021/07/12 14:12:39;;;;;;;5.15;3.33;;;;;;;;;;5027908;28;20099;-70
2021/07/12 14:15:07;;;;;;;3.08;2.72;;;;;;;;;;5012234;28;20030;-70
2021/07/12 14:17:33;;;;;;;3.92;3.15;;;;;;;;;;5013998;28;20062;-69
2021/07/12 14:19:59;;;;;;;4.05;2.78;;;;;;;;;;5011528;28;20037;-68
2021/07/12 14:22:25;;;;;;;3.10;2.80;;;;;;;;;;5016388;28;20026;-69
2021/07/12 14:24:51;;;;;;;3.65;2.72;;;;;;;;;;5006720;28;20033;-69
2021/07/12 14:27:17;;;;;;;3.75;3.20;;;;;;;;;;5007988;28;20492;-70
2021/07/12 14:29:45;;;;;;;3.55;3.08;;;;;;;;;;5008842;28;20033;-69
2021/07/12 14:32:11;;;;;;;4.38;2.95;;;;;;;;;;5008936;28;20088;-67
2021/07/12 14:34:38;;;;;;;3.45;2.80;;;;;;;;;;5015214;28;20021;-68
2021/07/12 14:37:04;;;;;;;3.35;3.05;;;;;;;;;;5018759;28;20911;-67
2021/07/12 14:39:30;;;;;;;5.03;2.60;;;;;;;;;;5016210;28;20079;-69
2021/07/12 14:41:56;;;;;;;4.32;2.63;;;;;;;;;;5012659;28;20038;-69
2021/07/12 14:44:22;;;;;;;3.00;2.70;;;;;;;;;;5015206;28;20531;-68
2021/07/12 14:46:48;;;;;;;6.22;2.90;;;;;;;;;;5026785;28;20045;-69